Time;durP1;ratioP1;P1;durP2;ratioP2;P2;SDS_P1;SDS_P2;PMS_P1;PMS_P2;Temp;Humidity;BMP_temperature;BMP_pressure;BME280_temperature;BME280_humidity;BME280_pressure;Samples;Min_cycle;Max_cycle;Signal;HPM_P1;HPM_P2
2021/11/29 00:01:08;;;;;;;25.92;13.23;;;;;;;1.53;100.00;99806.47;10097349;28;20117;-70
2021/11/29 00:06:05;;;;;;;39.95;14.05;;;;;;;1.40;100.00;99807.91;10086519;28;20463;-69
2021/11/29 00:11:03;;;;;;;26.90;13.18;;;;;;;1.33;100.00;99816.28;10106719;28;20047;-71
2021/11/29 00:16:00;;;;;;;24.20;12.20;;;;;;;1.30;100.00;99824.94;10094797;28;20069;-70
2021/11/29 00:20:57;;;;;;;59.65;13.25;;;;;;;1.25;100.00;99820.38;10094449;28;20114;-70
2021/11/29 00:25:54;;;;;;;33.40;12.95;;;;;;;1.16;100.00;99830.13;10078602;28;20039;-69
2021/11/29 00:30:50;;;;;;;60.75;12.40;;;;;;;1.18;100.00;99833.31;10110645;28;20097;-68
2021/11/29 00:35:47;;;;;;;71.07;11.95;;;;;;;0.84;100.00;99833.22;10107499;28;20467;-69
2021/11/29 00:40:44;;;;;;;64.13;11.73;;;;;;;1.07;100.00;99833.63;10103661;28;20039;-70
2021/11/29 00:45:40;;;;;;;36.30;12.07;;;;;;;0.94;100.00;99835.06;10097444;28;20094;-70
2021/11/29 00:50:37;;;;;;;173.88;15.13;;;;;;;0.98;100.00;99828.84;10101372;28;20046;-69
2021/11/29 00:55:35;;;;;;;39.55;13.25;;;;;;;1.04;100.00;99843.91;10099004;28;20647;-69
2021/11/29 01:00:32;;;;;;;47.33;13.30;;;;;;;1.04;100.00;99846.59;10101821;28;20125;-69
2021/11/29 01:05:30;;;;;;;41.25;13.07;;;;;;;1.00;100.00;99837.47;10097724;28;20461;-69
2021/11/29 01:10:28;;;;;;;148.57;13.07;;;;;;;0.82;100.00;99848.81;10097739;28;20569;-69
2021/11/29 01:15:28;;;;;;;52.25;11.57;;;;;;;0.79;100.00;99852.03;10091611;28;20046;-69
2021/11/29 01:20:25;;;;;;;32.95;12.02;;;;;;;0.77;100.00;99860.41;10092520;28;20499;-69
2021/11/29 01:25:21;;;;;;;81.68;13.77;;;;;;;0.91;100.00;99868.72;10097807;28;20559;-70
2021/11/29 01:30:17;;;;;;;38.28;11.80;;;;;;;0.92;100.00;99873.00;10093531;28;20170;-70
2021/11/29 01:35:14;;;;;;;29.00;12.05;;;;;;;1.03;100.00;99874.59;10110804;28;20078;-69
2021/11/29 01:40:12;;;;;;;35.70;12.30;;;;;;;0.95;100.00;99880.56;10101691;28;20051;-70
2021/11/29 01:45:16;;;;;;;29.90;11.73;;;;;;;0.99;100.00;99889.66;10099583;28;20089;-71
2021/11/29 01:50:13;;;;;;;68.45;13.18;;;;;;;0.75;100.00;99894.06;10101902;28;20047;-69
2021/11/29 01:55:09;;;;;;;32.72;10.65;;;;;;;0.71;100.00;99909.13;10107062;28;20047;-69
2021/11/29 02:00:09;;;;;;;24.33;10.23;;;;;;;0.80;100.00;99907.50;10116904;28;20117;-69
2021/11/29 02:10:20;;;;;;;22.65;9.77;;;;;;;0.57;100.00;99923.13;10132117;23;20047;-68
2021/11/29 02:15:18;;;;;;;19.63;9.60;;;;;;;0.58;100.00;99916.69;10145419;28;20081;-69
2021/11/29 02:20:16;;;;;;;54.22;10.07;;;;;;;0.53;100.00;99919.34;10146588;28;20057;-68
2021/11/29 02:25:19;;;;;;;26.90;10.73;;;;;;;0.41;100.00;99926.91;10151366;28;20053;-68
2021/11/29 02:30:17;;;;;;;20.40;9.90;;;;;;;0.58;100.00;99927.44;10140395;28;20077;-68
2021/11/29 02:35:14;;;;;;;32.85;10.18;;;;;;;0.50;100.00;99924.50;10143242;28;20059;-69
2021/11/29 02:40:10;;;;;;;63.00;10.95;;;;;;;0.35;100.00;99925.31;10143973;28;20065;-68
2021/11/29 02:45:07;;;;;;;19.85;10.95;;;;;;;0.56;100.00;99926.91;10145246;28;20494;-68
2021/11/29 02:50:04;;;;;;;36.92;9.10;;;;;;;0.53;100.00;99934.69;10144978;28;20544;-68
2021/11/29 02:55:01;;;;;;;28.20;10.35;;;;;;;0.42;100.00;99923.16;10145652;28;20097;-67
2021/11/29 02:59:57;;;;;;;30.95;10.20;;;;;;;0.35;100.00;99933.38;10144847;28;20134;-67
2021/11/29 03:04:54;;;;;;;19.42;10.57;;;;;;;0.43;100.00;99932.81;10146340;28;20096;-68
2021/11/29 03:09:50;;;;;;;18.63;10.15;;;;;;;0.40;100.00;99930.69;10148442;28;20046;-69
2021/11/29 03:14:48;;;;;;;19.42;8.93;;;;;;;0.38;100.00;99949.78;10148253;28;20088;-68
2021/11/29 03:19:47;;;;;;;16.42;8.75;;;;;;;0.33;100.00;99962.41;10151213;28;20113;-68
2021/11/29 03:24:46;;;;;;;15.98;9.02;;;;;;;0.32;100.00;99955.41;10144253;28;20066;-68
2021/11/29 03:29:44;;;;;;;15.25;8.55;;;;;;;0.39;100.00;99955.94;10140633;28;20133;-68
2021/11/29 03:34:40;;;;;;;14.88;7.50;;;;;;;0.31;100.00;99961.88;10148331;28;20066;-69
2021/11/29 03:39:37;;;;;;;13.90;8.20;;;;;;;0.50;100.00;99968.31;10142163;28;20162;-69
2021/11/29 03:44:35;;;;;;;16.48;8.90;;;;;;;0.43;100.00;99972.38;10149681;28;20105;-68
2021/11/29 03:49:32;;;;;;;14.43;7.97;;;;;;;0.38;100.00;99981.25;10142468;28;20133;-67
2021/11/29 03:54:29;;;;;;;12.30;7.28;;;;;;;0.38;100.00;99976.66;10145616;28;20046;-68
2021/11/29 03:59:25;;;;;;;14.45;8.23;;;;;;;0.48;100.00;99991.19;10145480;28;20117;-68
2021/11/29 04:04:21;;;;;;;14.35;8.52;;;;;;;0.50;100.00;99984.47;10137231;28;20138;-68
2021/11/29 04:09:18;;;;;;;12.65;6.95;;;;;;;0.47;100.00;99986.91;10137471;28;20157;-67
2021/11/29 04:14:14;;;;;;;11.98;7.15;;;;;;;0.51;100.00;100002.22;10141568;28;20050;-68
2021/11/29 04:19:11;;;;;;;11.55;6.72;;;;;;;0.54;100.00;100006.28;10137846;28;20133;-68
2021/11/29 04:24:08;;;;;;;11.68;6.70;;;;;;;0.52;100.00;100003.84;10144524;28;20043;-68
2021/11/29 04:29:15;;;;;;;12.93;7.63;;;;;;;0.54;100.00;100012.44;10139961;28;20055;-68
2021/11/29 04:34:12;;;;;;;13.70;7.88;;;;;;;0.50;100.00;100013.25;10142348;28;20112;-68
2021/11/29 04:39:09;;;;;;;12.48;7.47;;;;;;;0.61;100.00;100012.19;10143025;28;20097;-68
2021/11/29 04:44:06;;;;;;;12.05;7.60;;;;;;;0.62;100.00;100013.78;10143060;28;20120;-68
2021/11/29 04:49:03;;;;;;;12.82;8.10;;;;;;;0.56;100.00;100023.75;10142095;28;20101;-68
2021/11/29 04:54:02;;;;;;;14.40;8.20;;;;;;;0.71;100.00;100027.53;10142882;28;20046;-68
2021/11/29 04:58:58;;;;;;;12.70;7.18;;;;;;;0.69;100.00;100024.28;10144385;28;20050;-68
2021/11/29 05:03:55;;;;;;;14.10;8.35;;;;;;;0.74;100.00;100048.50;10142336;28;20050;-70
2021/11/29 05:08:52;;;;;;;13.02;7.32;;;;;;;0.69;100.00;100056.56;10146631;28;20065;-71
2021/11/29 05:13:48;;;;;;;15.80;8.60;;;;;;;0.64;100.00;100054.69;10137128;28;20061;-70
2021/11/29 05:18:45;;;;;;;13.57;7.97;;;;;;;0.70;100.00;100048.25;10122484;28;20549;-70
2021/11/29 05:23:42;;;;;;;14.40;8.82;;;;;;;0.60;100.00;100059.81;10120981;28;20536;-70
2021/11/29 05:28:38;;;;;;;18.25;8.63;;;;;;;0.62;100.00;100068.41;10118671;28;20047;-70
2021/11/29 05:33:35;;;;;;;15.73;8.20;;;;;;;0.58;100.00;100067.34;10119579;28;20038;-70
2021/11/29 05:38:32;;;;;;;16.20;8.77;;;;;;;0.51;100.00;100087.47;10127373;28;20494;-70
2021/11/29 05:43:29;;;;;;;16.25;9.80;;;;;;;0.61;100.00;100080.25;10129396;28;20050;-70
2021/11/29 05:48:29;;;;;;;16.05;8.90;;;;;;;0.62;100.00;100084.53;10132310;28;20085;-69
2021/11/29 05:53:26;;;;;;;23.30;12.20;;;;;;;0.56;100.00;100101.78;10129524;28;20046;-69
2021/11/29 05:58:22;;;;;;;22.30;11.80;;;;;;;0.69;100.00;100099.63;10133059;28;20070;-69
2021/11/29 06:03:19;;;;;;;19.40;10.20;;;;;;;0.65;100.00;100114.69;10133935;28;20270;-69
2021/11/29 06:08:15;;;;;;;19.42;10.23;;;;;;;0.58;100.00;100121.16;10134410;28;20050;-69
2021/11/29 06:13:12;;;;;;;21.50;10.90;;;;;;;0.67;100.00;100128.69;10124953;28;20043;-68
2021/11/29 06:18:09;;;;;;;20.17;10.45;;;;;;;0.76;100.00;100127.06;10124248;28;20078;-69
2021/11/29 06:23:06;;;;;;;17.60;9.88;;;;;;;0.71;100.00;100141.34;10129486;28;20130;-69
2021/11/29 06:28:02;;;;;;;16.48;9.52;;;;;;;0.85;100.00;100152.38;10128396;28;20046;-70
2021/11/29 06:32:59;;;;;;;16.75;9.52;;;;;;;0.90;100.00;100156.97;10122773;28;20484;-69
2021/11/29 06:38:03;;;;;;;24.92;11.07;;;;;;;0.73;100.00;100165.28;10118972;28;20105;-69
2021/11/29 06:43:00;;;;;;;26.70;11.80;;;;;;;0.56;100.00;100171.72;10125514;28;20058;-68
2021/11/29 06:47:57;;;;;;;22.02;11.27;;;;;;;0.65;100.00;100173.88;10144771;28;20471;-69
2021/11/29 06:52:53;;;;;;;24.52;12.50;;;;;;;0.78;100.00;100184.13;10135063;28;20043;-69
2021/11/29 06:57:50;;;;;;;28.05;12.93;;;;;;;0.64;100.00;100183.84;10129071;28;20088;-69
2021/11/29 07:02:48;;;;;;;21.30;11.48;;;;;;;0.85;100.00;100200.84;10140915;28;20088;-69
2021/11/29 07:07:49;;;;;;;23.73;12.05;;;;;;;0.88;100.00;100200.31;10136484;28;20046;-69
2021/11/29 07:12:47;;;;;;;25.38;13.18;;;;;;;0.94;100.00;100210.00;10127451;28;20554;-69
2021/11/29 07:17:44;;;;;;;27.00;13.98;;;;;;;0.81;100.00;100215.91;10119339;28;20062;-69
2021/11/29 07:22:42;;;;;;;25.40;14.25;;;;;;;0.76;100.00;100226.66;10138798;28;20090;-69
2021/11/29 07:27:39;;;;;;;27.98;13.45;;;;;;;0.87;100.00;100225.59;10141050;28;20507;-72
2021/11/29 07:32:36;;;;;;;25.08;12.70;;;;;;;0.81;100.00;100238.25;10144780;28;20039;-72
2021/11/29 07:37:34;;;;;;;22.55;12.27;;;;;;;0.78;100.00;100243.34;10137180;28;20101;-69
2021/11/29 07:42:30;;;;;;;25.13;12.68;;;;;;;0.70;100.00;100251.94;10139238;28;20055;-66
2021/11/29 07:47:27;;;;;;;26.25;13.98;;;;;;;0.94;100.00;100263.84;10135916;28;20523;-68
2021/11/29 07:52:24;;;;;;;25.60;13.82;;;;;;;1.00;100.00;100259.31;10128364;28;20042;-72
2021/11/29 07:57:20;;;;;;;26.85;13.60;;;;;;;0.94;100.00;100268.44;10123227;28;20536;-67
2021/11/29 08:02:17;;;;;;;33.88;16.52;;;;;;;1.00;100.00;100265.50;10120605;28;20089;-67
2021/11/29 08:07:16;;;;;;;29.33;14.52;;;;;;;1.09;100.00;100275.72;10117168;28;20460;-67
2021/11/29 08:12:13;;;;;;;33.40;16.90;;;;;;;0.98;100.00;100278.41;10115262;28;20055;-68
2021/11/29 08:17:09;;;;;;;31.73;15.80;;;;;;;1.07;100.00;100283.25;10114482;28;20074;-67
2021/11/29 08:22:06;;;;;;;35.95;17.38;;;;;;;1.23;100.00;100298.38;10113702;28;20510;-67
2021/11/29 08:27:03;;;;;;;40.50;19.00;;;;;;;1.19;100.00;100313.47;10115375;28;20078;-67
2021/11/29 08:32:16;;;;;;;35.72;17.55;;;;;;;1.33;100.00;100314.59;10126345;28;20526;-68
2021/11/29 08:37:15;;;;;;;35.97;16.55;;;;;;;1.28;100.00;100317.28;10117421;28;20470;-67
2021/11/29 08:42:12;;;;;;;36.38;16.35;;;;;;;1.37;100.00;100320.22;10117012;28;20049;-68
2021/11/29 08:47:09;;;;;;;30.13;15.85;;;;;;;1.29;100.00;100318.88;10107523;28;20133;-67
2021/11/29 08:52:06;;;;;;;28.50;15.23;;;;;;;1.29;100.00;100318.88;10118699;28;20042;-67
2021/11/29 08:57:02;;;;;;;30.23;14.75;;;;;;;1.49;100.00;100338.88;10120228;28;20046;-69
2021/11/29 09:01:59;;;;;;;31.88;16.35;;;;;;;1.62;100.00;100338.34;10102444;28;20050;-67
2021/11/29 09:06:57;;;;;;;32.58;17.35;;;;;;;1.72;100.00;100349.16;10102343;28;20057;-68
2021/11/29 09:11:53;;;;;;;30.88;15.15;;;;;;;1.84;100.00;100363.16;10122272;28;20050;-68
2021/11/29 09:16:50;;;;;;;38.67;18.70;;;;;;;1.78;100.00;100358.84;10119242;28;20049;-68
2021/11/29 09:21:47;;;;;;;35.22;16.65;;;;;;;1.73;100.00;100353.44;10117414;28;20045;-67
2021/11/29 09:26:44;;;;;;;30.13;15.80;;;;;;;1.71;100.00;100361.00;10117376;28;20069;-67
2021/11/29 09:31:40;;;;;;;35.33;17.25;;;;;;;1.83;100.00;100372.34;10124282;28;20586;-68
2021/11/29 09:36:38;;;;;;;33.03;17.50;;;;;;;1.83;100.00;100372.34;10124626;28;20042;-66
2021/11/29 09:41:35;;;;;;;35.65;19.02;;;;;;;1.88;100.00;100383.13;10120382;28;20966;-66
2021/11/29 09:46:33;;;;;;;38.00;20.00;;;;;;;2.09;100.00;100375.06;10117013;28;20039;-67
2021/11/29 09:51:30;;;;;;;35.97;18.42;;;;;;;2.28;100.00;100392.31;10118903;28;20047;-67
2021/11/29 09:56:28;;;;;;;31.35;16.85;;;;;;;2.44;100.00;100393.13;10134975;28;20043;-66
2021/11/29 10:01:24;;;;;;;27.58;15.13;;;;;;;2.44;100.00;100397.72;10132569;28;20090;-67
2021/11/29 10:06:29;;;;;;;29.50;16.67;;;;;;;2.56;100.00;100395.53;10120609;28;20462;-66
2021/11/29 10:11:27;;;;;;;29.02;15.70;;;;;;;2.57;100.00;100401.72;10123445;28;20046;-67
2021/11/29 10:16:38;;;;;;;22.67;13.18;;;;;;;2.55;100.00;100407.38;10130005;28;20729;-69
2021/11/29 10:21:35;;;;;;;23.08;14.07;;;;;;;2.68;100.00;100404.13;10128765;28;20054;-67
2021/11/29 10:26:35;;;;;;;21.00;12.82;;;;;;;2.74;100.00;100411.16;10132210;28;20117;-68
2021/11/29 10:31:45;;;;;;;25.73;13.50;;;;;;;2.78;100.00;100413.31;10139549;28;20043;-66
2021/11/29 10:36:47;;;;;;;21.98;12.38;;;;;;;2.94;100.00;100417.59;10147131;28;20050;-67
2021/11/29 10:41:50;;;;;;;20.92;10.88;;;;;;;2.92;100.00;100414.34;10153431;28;20062;-67
2021/11/29 10:46:53;;;;;;;18.35;11.80;;;;;;;3.02;100.00;100413.50;10142257;28;20054;-70
2021/11/29 10:51:51;;;;;;;15.43;9.50;;;;;;;3.04;100.00;100419.44;10146033;28;20045;-70
2021/11/29 10:56:49;;;;;;;16.83;10.27;;;;;;;3.16;100.00;100420.78;10152961;28;20046;-66
2021/11/29 11:01:50;;;;;;;14.55;7.93;;;;;;;3.32;100.00;100412.63;10158034;28;20070;-68
2021/11/29 11:06:51;;;;;;;13.15;7.80;;;;;;;3.40;100.00;100425.53;10147649;28;20057;-68
2021/11/29 11:11:49;;;;;;;12.50;8.18;;;;;;;3.42;100.00;100428.78;10146772;28;20034;-67
2021/11/29 11:16:57;;;;;;;10.88;6.57;;;;;;;3.43;100.00;100435.78;10139683;28;20529;-69
2021/11/29 11:21:57;;;;;;;10.38;6.53;;;;;;;3.49;100.00;100440.09;10138759;28;20101;-68
2021/11/29 11:26:57;;;;;;;9.02;5.60;;;;;;;3.59;100.00;100440.03;10150212;28;20056;-68
2021/11/29 11:32:07;;;;;;;8.63;5.25;;;;;;;3.74;100.00;100432.97;10142386;28;20121;-73
2021/11/29 11:37:04;;;;;;;7.20;4.60;;;;;;;3.78;100.00;100436.69;10147138;28;20056;-69
2021/11/29 11:42:01;;;;;;;7.53;4.13;;;;;;;3.79;100.00;100436.44;10148200;28;20070;-69
2021/11/29 11:47:00;;;;;;;9.15;4.70;;;;;;;3.95;100.00;100439.84;10144869;28;20050;-68
2021/11/29 11:51:57;;;;;;;6.93;3.72;;;;;;;3.99;100.00;100443.63;10130316;28;20418;-68
2021/11/29 11:56:54;;;;;;;6.60;4.00;;;;;;;3.94;100.00;100446.34;10127449;28;20042;-69
2021/11/29 12:01:52;;;;;;;7.82;4.25;;;;;;;3.96;100.00;100452.28;10121135;28;20046;-67
2021/11/29 12:06:49;;;;;;;8.00;4.60;;;;;;;4.16;100.00;100447.84;10135609;28;20060;-67
2021/11/29 12:12:02;;;;;;;7.30;3.90;;;;;;;4.58;100.00;100454.56;10124254;28;20066;-66
2021/11/29 12:17:01;;;;;;;7.22;3.80;;;;;;;4.71;100.00;100453.91;10113530;28;20042;-68
2021/11/29 12:22:06;;;;;;;6.18;4.32;;;;;;;4.46;100.00;100462.25;10120949;28;20050;-69
2021/11/29 12:27:06;;;;;;;8.85;5.30;;;;;;;4.39;100.00;100455.25;10104838;28;20058;-68
2021/11/29 12:32:03;;;;;;;7.07;4.68;;;;;;;4.36;100.00;100463.94;10122381;28;20474;-69
2021/11/29 12:37:00;;;;;;;7.65;5.10;;;;;;;4.59;100.00;100462.38;10124881;28;20057;-68
2021/11/29 12:41:56;;;;;;;8.52;4.93;;;;;;;4.95;100.00;100464.78;10128897;28;20707;-68
2021/11/29 12:47:22;;;;;;;11.80;5.47;;;;;;;5.28;100.00;100462.25;10126080;28;20398;-68
2021/11/29 12:52:36;;;;;;;9.35;5.50;;;;;;;5.22;100.00;100474.22;10126441;28;20047;-68
2021/11/29 12:57:36;;;;;;;8.40;5.35;;;;;;;4.91;100.00;100473.75;10129718;28;20042;-68
2021/11/29 13:02:51;;;;;;;12.48;6.30;;;;;;;4.71;100.00;100483.69;10128515;28;20046;-68
2021/11/29 13:08:04;;;;;;;8.73;5.53;;;;;;;4.88;100.00;100490.59;10128327;28;20062;-68
2021/11/29 13:13:29;;;;;;;9.82;6.63;;;;;;;4.78;100.00;100492.28;10131836;28;20391;-67
2021/11/29 13:18:45;;;;;;;8.02;5.50;;;;;;;4.67;100.00;100490.75;10136667;28;20833;-67
2021/11/29 13:23:55;;;;;;;7.88;5.28;;;;;;;4.83;100.00;100484.13;10142577;28;20085;-68
2021/11/29 13:28:55;;;;;;;7.30;4.10;;;;;;;4.96;100.00;100492.66;10143839;28;20049;-70
2021/11/29 13:33:52;;;;;;;5.93;3.95;;;;;;;4.93;100.00;100490.53;10149986;28;20051;-66
2021/11/29 13:39:15;;;;;;;7.32;4.40;;;;;;;4.83;100.00;100500.38;10139448;28;20053;-67
2021/11/29 13:44:24;;;;;;;6.40;4.40;;;;;;;4.77;100.00;100506.91;10137090;28;20042;-67
2021/11/29 13:49:29;;;;;;;10.93;5.13;;;;;;;4.77;100.00;100509.63;10130045;28;20449;-66
2021/11/29 13:54:25;;;;;;;7.65;5.05;;;;;;;4.59;100.00;100523.84;10124346;28;20038;-66
2021/11/29 13:59:22;;;;;;;9.40;4.97;;;;;;;4.83;100.00;100532.88;10120402;28;20046;-66
2021/11/29 14:04:21;;;;;;;8.93;4.30;;;;;;;4.91;100.00;100533.34;10117513;28;20041;-68
2021/11/29 14:09:19;;;;;;;7.75;4.00;;;;;;;4.73;100.00;100543.78;10120696;28;20121;-68
2021/11/29 14:14:19;;;;;;;8.10;4.72;;;;;;;4.64;100.00;100556.31;10126614;28;20046;-69
2021/11/29 14:19:16;;;;;;;6.40;3.95;;;;;;;4.61;100.00;100563.09;10138041;28;20104;-67
2021/11/29 14:24:14;;;;;;;6.05;2.58;;;;;;;4.30;100.00;100576.03;10157866;28;20046;-66
2021/11/29 14:29:18;;;;;;;5.57;2.63;;;;;;;4.02;100.00;100582.13;10160989;28;20054;-66
2021/11/29 14:34:21;;;;;;;4.63;2.88;;;;;;;4.08;100.00;100597.25;10167056;28;20045;-67
2021/11/29 14:39:24;;;;;;;5.40;3.40;;;;;;;4.05;100.00;100597.81;10126610;28;20061;-69
2021/11/29 14:44:23;;;;;;;6.95;2.88;;;;;;;3.95;100.00;100610.28;10148294;28;20042;-68
2021/11/29 14:49:30;;;;;;;6.10;2.95;;;;;;;3.99;100.00;100624.88;10150182;28;20124;-67
2021/11/29 14:54:27;;;;;;;6.50;2.97;;;;;;;3.88;100.00;100636.81;10154405;28;20045;-67
2021/11/29 14:59:27;;;;;;;5.10;2.90;;;;;;;3.79;100.00;100644.66;10149898;28;20046;-67
2021/11/29 15:04:33;;;;;;;7.53;3.22;;;;;;;3.81;100.00;100652.53;10147951;28;20351;-67
2021/11/29 15:09:33;;;;;;;6.32;3.05;;;;;;;3.54;100.00;100653.63;10152401;28;20073;-66
2021/11/29 15:14:33;;;;;;;5.40;3.47;;;;;;;3.55;100.00;100666.09;10157322;28;20042;-69
2021/11/29 15:19:37;;;;;;;5.47;3.35;;;;;;;3.56;100.00;100662.28;10154611;28;20057;-67
2021/11/29 15:24:47;;;;;;;5.80;3.60;;;;;;;3.69;100.00;100665.50;10142872;28;20407;-68
2021/11/29 15:29:45;;;;;;;5.80;3.63;;;;;;;3.72;100.00;100670.38;10132831;28;20130;-68
2021/11/29 15:35:18;;;;;;;7.32;3.75;;;;;;;3.72;100.00;100670.38;10131307;28;20042;-70
2021/11/29 15:40:23;;;;;;;7.15;3.47;;;;;;;3.61;100.00;100685.00;10152872;28;20042;-68
2021/11/29 15:45:20;;;;;;;6.97;3.90;;;;;;;3.57;100.00;100690.97;10150249;28;20061;-69
2021/11/29 15:50:17;;;;;;;6.53;4.28;;;;;;;3.64;100.00;100684.44;10158615;28;20053;-66
2021/11/29 15:55:14;;;;;;;6.15;3.70;;;;;;;3.70;100.00;100688.78;10153413;28;20147;-66
2021/11/29 16:00:11;;;;;;;9.43;4.38;;;;;;;3.38;100.00;100692.56;10138026;28;20058;-70
2021/11/29 16:05:09;;;;;;;7.57;4.15;;;;;;;3.44;100.00;100691.50;10137795;28;20051;-66
2021/11/29 16:10:07;;;;;;;7.20;4.15;;;;;;;3.50;100.00;100695.81;10151464;28;20050;-65
2021/11/29 16:15:04;;;;;;;6.63;4.13;;;;;;;3.47;100.00;100693.66;10153719;28;20042;-68
2021/11/29 16:20:03;;;;;;;8.10;4.07;;;;;;;3.50;100.00;100698.50;10149546;28;20144;-69
2021/11/29 16:25:02;;;;;;;6.30;4.13;;;;;;;3.48;100.00;100698.00;10150401;28;20120;-68
2021/11/29 16:30:10;;;;;;;7.50;4.65;;;;;;;3.44;100.00;100696.91;10148226;28;20429;-66
2021/11/29 16:35:07;;;;;;;9.50;4.65;;;;;;;3.30;100.00;100703.94;10140418;28;20489;-67
2021/11/29 16:40:05;;;;;;;6.95;4.47;;;;;;;3.14;100.00;100720.13;10139567;28;20042;-67
2021/11/29 16:45:03;;;;;;;7.32;4.13;;;;;;;3.07;100.00;100711.47;10146060;28;20075;-66
2021/11/29 16:50:00;;;;;;;10.23;4.80;;;;;;;3.03;100.00;100718.47;10141448;28;20045;-66
2021/11/29 16:54:57;;;;;;;12.40;4.78;;;;;;;2.90;100.00;100714.41;10142375;28;20066;-67
2021/11/29 16:59:53;;;;;;;10.25;5.38;;;;;;;2.84;100.00;100714.66;10137641;28;20046;-70
2021/11/29 17:04:50;;;;;;;8.90;4.75;;;;;;;2.78;100.00;100719.22;10147426;28;20109;-68
2021/11/29 17:09:46;;;;;;;7.72;4.82;;;;;;;2.70;100.00;100720.56;10129460;28;20101;-68
2021/11/29 17:14:48;;;;;;;11.18;5.15;;;;;;;2.56;100.00;100716.72;10130634;28;20130;-67
2021/11/29 17:19:46;;;;;;;8.30;5.07;;;;;;;2.54;100.00;100716.19;10113891;28;20083;-66
2021/11/29 17:24:50;;;;;;;10.70;5.10;;;;;;;2.51;100.00;100722.91;10128873;28;20046;-70
2021/11/29 17:29:47;;;;;;;9.32;5.43;;;;;;;2.38;100.00;100722.59;10140324;28;20100;-68
2021/11/29 17:34:44;;;;;;;11.48;5.45;;;;;;;2.43;100.00;100731.50;10154640;28;20055;-70
2021/11/29 17:39:45;;;;;;;10.48;5.75;;;;;;;2.40;100.00;100726.63;10127678;28;20128;-67
2021/11/29 17:44:42;;;;;;;9.40;5.55;;;;;;;2.33;100.00;100730.66;10134619;28;20045;-69
2021/11/29 17:49:39;;;;;;;9.25;6.10;;;;;;;2.27;100.00;100733.31;10162463;28;20047;-67
2021/11/29 17:54:36;;;;;;;9.45;5.53;;;;;;;2.25;100.00;100729.25;10164031;28;20039;-67
2021/11/29 17:59:33;;;;;;;11.55;5.97;;;;;;;2.17;100.00;100733.28;10154272;28;20047;-70
2021/11/29 18:04:35;;;;;;;10.15;5.90;;;;;;;2.11;100.00;100739.69;10135623;28;20097;-68
2021/11/29 18:14:42;;;;;;;12.00;6.75;;;;;;;1.99;100.00;100734.50;10122579;28;20080;-66
2021/11/29 18:19:40;;;;;;;12.80;7.93;;;;;;;1.92;100.00;100742.00;10125378;28;20142;-68
2021/11/29 18:24:37;;;;;;;13.20;7.78;;;;;;;1.89;100.00;100751.44;10122153;28;20077;-68
2021/11/29 18:29:34;;;;;;;14.27;8.60;;;;;;;1.87;100.00;100756.25;10136392;28;20137;-67
2021/11/29 18:34:34;;;;;;;11.10;7.53;;;;;;;1.85;100.00;100763.00;10139036;28;20038;-68
2021/11/29 18:39:31;;;;;;;13.07;8.00;;;;;;;1.89;100.00;100754.13;10142972;28;20085;-68
2021/11/29 18:44:28;;;;;;;12.60;7.60;;;;;;;1.92;100.00;100762.78;10154838;28;20073;-68
2021/11/29 18:49:26;;;;;;;14.45;9.15;;;;;;;1.95;100.00;100762.25;10122798;28;20050;-68
2021/11/29 18:54:23;;;;;;;12.07;8.00;;;;;;;2.07;100.00;100770.97;10136490;28;20042;-67
2021/11/29 18:59:20;;;;;;;16.80;9.45;;;;;;;2.09;100.00;100758.84;10130662;28;20081;-68
2021/11/29 19:04:16;;;;;;;12.50;7.80;;;;;;;2.10;100.00;100759.66;10152014;28;20054;-67
2021/11/29 19:09:13;;;;;;;13.48;7.78;;;;;;;2.15;100.00;100748.09;10143111;28;20126;-68
2021/11/29 19:14:09;;;;;;;13.82;8.40;;;;;;;2.14;100.00;100743.78;10143943;28;20066;-70
2021/11/29 19:19:06;;;;;;;12.27;8.52;;;;;;;2.15;100.00;100748.91;10142713;28;20046;-70
2021/11/29 19:24:06;;;;;;;13.05;8.05;;;;;;;2.16;100.00;100753.25;10156109;28;20046;-68
2021/11/29 19:29:03;;;;;;;13.90;7.90;;;;;;;2.25;100.00;100740.03;10135533;28;20047;-67
2021/11/29 19:34:00;;;;;;;13.93;7.45;;;;;;;2.21;100.00;100734.38;10136834;28;20049;-68
2021/11/29 19:38:57;;;;;;;12.73;8.23;;;;;;;2.30;100.00;100727.41;10128077;28;20081;-67
2021/11/29 19:43:54;;;;;;;11.32;6.78;;;;;;;2.50;100.00;100723.16;10164515;28;20600;-68
2021/11/29 19:48:51;;;;;;;10.18;6.85;;;;;;;2.54;100.00;100713.47;10135910;28;20050;-68
2021/11/29 19:53:47;;;;;;;11.90;6.80;;;;;;;2.49;100.00;100714.28;10142280;28;20384;-69
2021/11/29 19:58:44;;;;;;;13.93;7.22;;;;;;;2.54;100.00;100724.28;10130287;28;20046;-68
2021/11/29 20:03:40;;;;;;;9.63;6.28;;;;;;;2.70;100.00;100720.56;10144039;28;20126;-67
2021/11/29 20:08:38;;;;;;;9.25;6.40;;;;;;;2.80;100.00;100729.75;10140225;28;20042;-69
2021/11/29 20:13:38;;;;;;;7.60;5.18;;;;;;;2.90;100.00;100727.06;10142282;28;20108;-69
2021/11/29 20:18:35;;;;;;;11.48;6.03;;;;;;;2.93;100.00;100734.66;10133744;28;20077;-69
2021/11/29 20:23:35;;;;;;;9.70;5.45;;;;;;;2.73;100.00;100717.31;10154769;28;20487;-69
2021/11/29 20:28:31;;;;;;;10.00;5.18;;;;;;;2.80;100.00;100713.56;10140272;28;20038;-68
2021/11/29 20:33:37;;;;;;;9.82;5.40;;;;;;;2.74;100.00;100713.56;10133785;28;20877;-68
2021/11/29 20:38:37;;;;;;;8.27;4.93;;;;;;;2.73;100.00;100708.41;10128911;28;20085;-69
2021/11/29 20:43:38;;;;;;;11.00;5.20;;;;;;;2.79;100.00;100703.84;10141514;28;20141;-69
2021/11/29 20:48:49;;;;;;;8.07;4.72;;;;;;;2.85;100.00;100700.06;10127776;28;20629;-69
2021/11/29 20:54:00;;;;;;;7.43;3.63;;;;;;;2.81;100.00;100693.56;10130765;28;20046;-69
2021/11/29 20:58:57;;;;;;;6.10;3.63;;;;;;;2.89;100.00;100684.97;10117064;28;20053;-70
2021/11/29 21:03:54;;;;;;;6.25;3.08;;;;;;;2.90;100.00;100675.75;10108564;28;20105;-70
2021/11/29 21:08:56;;;;;;;5.07;3.00;;;;;;;2.71;100.00;100668.16;10138737;28;20460;-69
2021/11/29 21:13:52;;;;;;;4.85;2.83;;;;;;;2.64;100.00;100667.59;10139044;28;20046;-70
2021/11/29 21:18:49;;;;;;;6.60;3.88;;;;;;;2.60;100.00;100660.31;10120723;28;20191;-69
2021/11/29 21:23:46;;;;;;;6.15;3.55;;;;;;;2.49;100.00;100648.69;10110189;28;20631;-68
2021/11/29 21:28:43;;;;;;;7.25;2.97;;;;;;;2.51;100.00;100660.03;10132306;28;20701;-69
2021/11/29 21:33:40;;;;;;;4.90;3.13;;;;;;;2.42;100.00;100664.31;10135880;28;20074;-68
2021/11/29 21:38:36;;;;;;;5.70;2.95;;;;;;;2.46;100.00;100654.59;10133373;28;20106;-70
2021/11/29 21:43:33;;;;;;;5.68;3.28;;;;;;;2.46;100.00;100660.00;10126157;28;20039;-69
2021/11/29 21:48:30;;;;;;;6.00;2.95;;;;;;;2.34;100.00;100657.53;10137688;28;20055;-68
2021/11/29 21:53:27;;;;;;;4.38;2.50;;;;;;;2.30;100.00;100651.88;10137791;28;20062;-69
2021/11/29 21:58:23;;;;;;;5.97;2.50;;;;;;;2.39;100.00;100654.88;10158495;28;20085;-69
2021/11/29 22:03:20;;;;;;;4.35;2.30;;;;;;;2.40;100.00;100639.47;10149552;28;20120;-69
2021/11/29 22:08:16;;;;;;;5.00;2.22;;;;;;;2.34;100.00;100622.44;10140388;28;20050;-69
2021/11/29 22:13:13;;;;;;;7.65;3.03;;;;;;;2.36;100.00;100616.78;10162854;28;20050;-69
2021/11/29 22:18:09;;;;;;;4.82;2.60;;;;;;;2.25;100.00;100611.38;10153563;28;20108;-69
2021/11/29 22:23:06;;;;;;;6.55;3.55;;;;;;;2.34;100.00;100610.84;10153695;28;20073;-68
2021/11/29 22:28:03;;;;;;;7.07;3.17;;;;;;;2.32;100.00;100600.31;10163957;28;20054;-68
2021/11/29 22:32:59;;;;;;;7.35;3.78;;;;;;;2.29;100.00;100577.38;10173095;28;20462;-68
2021/11/29 22:37:56;;;;;;;7.97;3.63;;;;;;;2.38;100.00;100576.88;10153958;28;20073;-69
2021/11/29 22:42:58;;;;;;;7.72;3.50;;;;;;;2.50;100.00;100574.72;10149371;28;21338;-68
2021/11/29 22:47:54;;;;;;;8.38;4.07;;;;;;;2.52;100.00;100567.19;10157996;28;20050;-67
2021/11/29 22:52:51;;;;;;;9.85;4.25;;;;;;;2.58;100.00;100563.41;10170333;28;20050;-68